San Francisco, CA

2:56 AM PDT on September 30, 2016 (GMT -0700)
The Castro | | Change Station

Elev 188 ft 37.76 °N, 122.43 °W | Updated 50 seconds ago

Overcast
Overcast
51.5 °F
Feels Like 51.5 °F
N
5.0
Wind Variable Wind from West
Gusts 10.0 mph

Today
High -- | Low -- °F
--% Chance of Precip.
Yesterday
High -- | Low -- °F
Precip. -- in
Pressure 30.11 in
Visibility 10.0 miles
Clouds Mostly Cloudy 600 ft
Overcast 900 ft
Dew Point 50 °F
Humidity 96%
Rainfall Not available.
Snow Depth Not available.
7:04 AM 6:53 PM
Waning Crescent, 0% visible
METAR KSFO 300856Z 25008KT 10SM BKN006 OVC009 13/11 A3011 RMK AO2 SLP196 T01280106 53003
Pressure 30.11 in
Visibility 10.0 miles
Clouds Mostly Cloudy 600 ft
Overcast 900 ft
Dew Point 50 °F
Humidity 96%
Rainfall Not available.
Snow Depth Not available.
7:04 AM 6:53 PM
Waning Crescent, 0% visible
METAR KSFO 300856Z 25008KT 10SM BKN006 OVC009 13/11 A3011 RMK AO2 SLP196 T01280106 53003

10-Day Weather Forecast

Almanac

Astronomy

Sep. 30, 2016 Rise Set
Actual Time
Civil Twilight
Nautical Twilight
Astronomical Twilight
Moon
Length of Visible Light
Length of Day
Tomorrow will be .
, % of the Moon is Illuminated

Today's Extremes

State Highs State Lows

Community

WunderPhotos

Upload Photos

1,942,684 photos uploaded!

WunderBlog® & News

Nearby

Air Quality

  Air Quality AQ Index Pollutant
Not available.

Snow Depth

Station Depth Elevation

Earthquake Activity

City Distance Mag. Time & Date
Minimum magnitude displayed is 2.5.

Coastal Water Temperatures

Place Temperature

Stations

Nearby Weather Stations

Station Location Temp. Windchill Dew Point Humidity Wind Precip. Elev Updated Type
                   

Watches & Warnings

There are currently no watches in effect.